createdAt,value
2023-01-07T00:01:26.380Z,10.40
2023-01-07T00:03:54.255Z,10.50
2023-01-07T00:06:23.744Z,10.40
2023-01-07T00:08:53.694Z,10.50
2023-01-07T00:11:41.805Z,10.50
2023-01-07T00:14:11.605Z,10.60
2023-01-07T00:16:39.210Z,10.60
2023-01-07T00:19:08.057Z,10.60
2023-01-07T00:21:35.302Z,10.60
2023-01-07T00:24:05.967Z,10.60
2023-01-07T00:26:37.830Z,10.70
2023-01-07T00:29:06.118Z,10.70
2023-01-07T00:31:35.676Z,10.70
2023-01-07T00:34:03.338Z,10.70
2023-01-07T00:36:33.157Z,10.70
2023-01-07T00:39:06.424Z,10.70
2023-01-07T00:41:33.728Z,10.70
2023-01-07T00:44:01.046Z,10.70
2023-01-07T00:46:27.977Z,10.60
2023-01-07T00:48:55.428Z,10.70
2023-01-07T00:51:22.653Z,10.70
2023-01-07T00:53:49.688Z,10.70
2023-01-07T00:56:20.431Z,10.70
2023-01-07T00:58:47.381Z,10.80
2023-01-07T01:01:15.550Z,10.80
2023-01-07T01:03:42.539Z,10.70
2023-01-07T01:06:14.788Z,10.80
2023-01-07T01:08:43.851Z,10.80
2023-01-07T01:11:12.875Z,10.80
2023-01-07T01:13:40.454Z,10.80
2023-01-07T01:16:13.559Z,10.80
2023-01-07T01:18:41.218Z,10.80
2023-01-07T01:21:11.111Z,10.70
2023-01-07T01:23:38.445Z,10.70
2023-01-07T01:26:15.071Z,10.70
2023-01-07T01:28:43.368Z,10.70
2023-01-07T01:31:11.495Z,10.80
2023-01-07T01:33:46.323Z,10.70
2023-01-07T01:36:13.438Z,10.80
2023-01-07T01:38:41.282Z,10.80
2023-01-07T01:41:09.275Z,10.80
2023-01-07T01:43:41.346Z,10.80
2023-01-07T01:46:43.126Z,10.80
2023-01-07T01:49:30.760Z,10.80
2023-01-07T01:52:09.921Z,10.80
2023-01-07T01:54:37.339Z,10.80
2023-01-07T01:57:06.530Z,10.80
2023-01-07T01:59:37.917Z,10.80
2023-01-07T02:02:09.034Z,10.80
2023-01-07T02:04:37.233Z,10.80
2023-01-07T02:07:10.860Z,10.80
2023-01-07T02:09:41.858Z,10.80
2023-01-07T02:12:16.390Z,10.80
2023-01-07T02:15:01.914Z,10.80
2023-01-07T02:17:54.603Z,10.80
2023-01-07T02:20:36.901Z,10.70
2023-01-07T02:23:22.277Z,10.70
2023-01-07T02:26:20.205Z,10.80
2023-01-07T02:29:11.833Z,10.80
2023-01-07T02:32:07.166Z,10.70
2023-01-07T02:34:59.005Z,10.70
2023-01-07T02:38:03.015Z,10.80
2023-01-07T02:40:47.334Z,10.80
2023-01-07T02:43:43.367Z,10.80
2023-01-07T02:46:47.686Z,10.80
2023-01-07T02:49:16.699Z,10.90
2023-01-07T02:51:44.609Z,10.90
2023-01-07T02:54:19.392Z,10.80
2023-01-07T02:57:21.555Z,10.80
2023-01-07T03:00:07.320Z,10.80
2023-01-07T03:02:34.277Z,10.70
2023-01-07T03:05:17.301Z,10.80
2023-01-07T03:07:59.374Z,10.80
2023-01-07T03:10:59.817Z,10.80
2023-01-07T03:13:54.221Z,10.80
2023-01-07T03:16:30.629Z,10.80
2023-01-07T03:19:21.803Z,10.70
2023-01-07T03:21:50.272Z,10.70
2023-01-07T03:24:18.433Z,10.70
2023-01-07T03:26:51.465Z,10.70
2023-01-07T03:29:20.009Z,10.70
2023-01-07T03:32:14.456Z,10.70
2023-01-07T03:34:43.458Z,10.70
2023-01-07T03:37:14.705Z,10.70
2023-01-07T03:39:45.170Z,10.70
2023-01-07T03:42:32.622Z,10.70
2023-01-07T03:45:00.578Z,10.70
2023-01-07T03:47:30.409Z,10.70
2023-01-07T03:49:57.701Z,10.60
2023-01-07T03:52:27.364Z,10.60
2023-01-07T03:54:54.581Z,10.60
2023-01-07T03:57:21.752Z,10.60
2023-01-07T03:59:48.762Z,10.70
2023-01-07T04:02:15.878Z,10.70
2023-01-07T04:04:43.469Z,10.70
2023-01-07T04:07:10.467Z,10.70
2023-01-07T04:09:38.089Z,10.60
2023-01-07T04:12:05.062Z,10.60
2023-01-07T04:14:32.331Z,10.60
2023-01-07T04:16:59.851Z,10.60
2023-01-07T04:19:27.033Z,10.70
2023-01-07T04:21:53.984Z,10.70
2023-01-07T04:24:21.076Z,10.70
2023-01-07T04:26:48.389Z,10.70
2023-01-07T04:29:15.542Z,10.60
2023-01-07T04:31:42.440Z,10.60
2023-01-07T04:34:09.935Z,10.60
2023-01-07T04:36:37.028Z,10.70
2023-01-07T04:39:04.923Z,10.60
2023-01-07T04:41:32.375Z,10.60
2023-01-07T04:43:59.964Z,10.60
2023-01-07T04:46:27.216Z,10.50
2023-01-07T04:48:54.357Z,10.60
2023-01-07T04:51:22.347Z,10.60
2023-01-07T04:53:49.515Z,10.60
2023-01-07T04:56:17.146Z,10.60
2023-01-07T04:58:45.063Z,10.60
2023-01-07T05:01:13.219Z,10.60
2023-01-07T05:03:40.595Z,10.50
2023-01-07T05:06:09.408Z,10.50
2023-01-07T05:08:37.848Z,10.50
2023-01-07T05:11:05.746Z,10.50
2023-01-07T05:13:35.353Z,10.60
2023-01-07T05:16:04.405Z,10.50
2023-01-07T05:18:31.545Z,10.50
2023-01-07T05:20:59.271Z,10.50
2023-01-07T05:23:26.366Z,10.50
2023-01-07T05:25:53.407Z,10.50
2023-01-07T05:28:20.579Z,10.50
2023-01-07T05:30:48.171Z,10.50
2023-01-07T05:33:15.154Z,10.50
2023-01-07T05:35:42.141Z,10.50
2023-01-07T05:38:09.348Z,10.50
2023-01-07T05:40:36.821Z,10.50
2023-01-07T05:43:03.826Z,10.40
2023-01-07T05:45:31.024Z,10.40
2023-01-07T05:47:57.879Z,10.40
2023-01-07T05:50:24.820Z,10.40
2023-01-07T05:52:52.095Z,10.40
2023-01-07T05:55:19.256Z,10.40
2023-01-07T05:57:46.171Z,10.30
2023-01-07T06:00:13.808Z,10.20
2023-01-07T06:02:40.744Z,10.20
2023-01-07T06:05:08.834Z,10.30
2023-01-07T06:07:35.903Z,10.20
2023-01-07T06:10:03.395Z,10.10
2023-01-07T06:12:31.005Z,10.10
2023-01-07T06:14:57.920Z,10.00
2023-01-07T06:17:24.812Z,10.00
2023-01-07T06:19:51.701Z,9.90
2023-01-07T06:22:18.583Z,10.00
2023-01-07T06:24:45.464Z,10.00
2023-01-07T06:27:12.952Z,10.00
2023-01-07T06:29:39.945Z,10.00
2023-01-07T06:32:06.903Z,10.00
2023-01-07T06:34:33.769Z,10.00
2023-01-07T06:37:01.766Z,9.90
2023-01-07T06:39:28.709Z,10.00
2023-01-07T06:41:55.600Z,10.00
2023-01-07T06:44:22.544Z,10.00
2023-01-07T06:46:49.443Z,10.00
2023-01-07T06:49:17.136Z,10.00
2023-01-07T06:51:44.037Z,10.00
2023-01-07T06:54:11.164Z,9.90
2023-01-07T06:56:38.082Z,9.90
2023-01-07T06:59:04.960Z,9.90
2023-01-07T07:01:32.031Z,9.90
2023-01-07T07:03:58.984Z,9.80
2023-01-07T07:06:25.932Z,9.80
2023-01-07T07:08:52.900Z,9.80
2023-01-07T07:11:19.846Z,9.80
2023-01-07T07:13:46.880Z,9.80
2023-01-07T07:16:13.867Z,9.80
2023-01-07T07:18:40.831Z,9.80
2023-01-07T07:21:07.771Z,9.70
2023-01-07T07:23:34.671Z,9.70
2023-01-07T07:26:01.559Z,9.60
2023-01-07T07:28:28.440Z,9.60
2023-01-07T07:30:55.441Z,9.60
2023-01-07T07:33:22.481Z,9.60
2023-01-07T07:35:49.473Z,9.60
2023-01-07T07:38:17.850Z,9.60
2023-01-07T07:40:45.585Z,9.60
2023-01-07T07:43:13.295Z,9.60
2023-01-07T07:45:43.998Z,9.60
2023-01-07T07:48:13.423Z,9.60
2023-01-07T07:50:40.360Z,9.70
2023-01-07T07:53:10.603Z,9.80
2023-01-07T07:55:41.110Z,9.80
2023-01-07T07:58:08.222Z,9.90
2023-01-07T08:00:35.237Z,9.90
2023-01-07T08:03:02.854Z,9.90
2023-01-07T08:05:30.268Z,10.00
2023-01-07T08:07:58.274Z,10.00
2023-01-07T08:10:27.214Z,10.10
2023-01-07T08:12:54.246Z,10.10
2023-01-07T08:15:21.263Z,10.10
2023-01-07T08:17:48.234Z,10.10
2023-01-07T08:20:15.260Z,10.10
2023-01-07T08:22:42.183Z,10.10
2023-01-07T08:25:09.511Z,10.20
2023-01-07T08:27:36.393Z,10.20
2023-01-07T08:30:03.857Z,10.20
2023-01-07T08:32:30.789Z,10.30
2023-01-07T08:34:57.877Z,10.30
2023-01-07T08:37:24.793Z,10.30
2023-01-07T08:39:51.775Z,10.30
2023-01-07T08:42:19.305Z,10.30
2023-01-07T08:44:46.251Z,10.40
2023-01-07T08:47:13.198Z,10.40
2023-01-07T08:49:40.284Z,10.40
2023-01-07T08:52:07.249Z,10.40
2023-01-07T08:54:34.155Z,10.40
2023-01-07T08:57:01.028Z,10.40
2023-01-07T08:59:28.039Z,10.40
2023-01-07T09:01:55.115Z,10.50
2023-01-07T09:04:22.099Z,10.50
2023-01-07T09:06:49.066Z,10.50
2023-01-07T09:09:16.674Z,10.50
2023-01-07T09:11:43.611Z,10.50
2023-01-07T09:14:10.520Z,10.60
2023-01-07T09:16:37.438Z,10.60
2023-01-07T09:19:04.590Z,10.70
2023-01-07T09:21:31.476Z,10.70
2023-01-07T09:23:58.427Z,10.80
2023-01-07T09:26:25.341Z,10.80
2023-01-07T09:28:52.191Z,10.80
2023-01-07T09:31:19.171Z,10.80
2023-01-07T09:33:46.140Z,10.80
2023-01-07T09:36:13.092Z,10.80
2023-01-07T09:38:40.053Z,10.90
2023-01-07T09:41:28.609Z,10.80
2023-01-07T09:44:01.846Z,10.80
2023-01-07T09:46:30.828Z,10.90
2023-01-07T09:49:02.614Z,10.90
2023-01-07T09:51:36.997Z,10.90
2023-01-07T09:54:08.765Z,11.00
2023-01-07T09:56:39.805Z,11.00
2023-01-07T09:59:07.527Z,11.10
2023-01-07T10:01:54.216Z,11.10
2023-01-07T10:04:26.935Z,11.10
2023-01-07T10:07:26.921Z,11.20
2023-01-07T10:10:09.234Z,11.20
2023-01-07T10:12:49.740Z,11.20
2023-01-07T10:15:28.543Z,11.20
2023-01-07T10:18:12.390Z,11.20
2023-01-07T10:20:59.517Z,11.20
2023-01-07T10:23:35.908Z,11.20
2023-01-07T10:26:03.353Z,11.20
2023-01-07T10:28:39.029Z,11.20
2023-01-07T10:31:19.290Z,11.10
2023-01-07T10:33:50.488Z,11.20
2023-01-07T10:36:26.031Z,11.20
2023-01-07T10:38:59.135Z,11.10
2023-01-07T10:41:48.423Z,11.10
2023-01-07T10:44:43.122Z,11.10
2023-01-07T10:47:35.217Z,11.10
2023-01-07T10:50:02.146Z,11.00
2023-01-07T10:52:32.062Z,11.10
2023-01-07T10:55:11.386Z,11.10
2023-01-07T10:57:39.147Z,11.10
2023-01-07T11:00:12.976Z,11.20
2023-01-07T11:02:44.451Z,11.30
2023-01-07T11:05:14.706Z,11.50
2023-01-07T11:07:51.303Z,11.70
2023-01-07T11:10:22.076Z,12.10
2023-01-07T11:12:59.591Z,12.30
2023-01-07T11:15:35.893Z,13.10
2023-01-07T11:18:04.463Z,14.60
2023-01-07T11:20:48.221Z,14.10
2023-01-07T11:23:31.797Z,14.50
2023-01-07T11:26:26.427Z,14.60
2023-01-07T11:28:53.326Z,15.20
2023-01-07T11:31:21.885Z,14.30
2023-01-07T11:34:03.252Z,13.90
2023-01-07T11:36:43.412Z,13.70
2023-01-07T11:39:30.541Z,13.70
2023-01-07T11:42:21.901Z,13.60
2023-01-07T11:44:48.840Z,13.70
2023-01-07T11:47:18.508Z,13.70
2023-01-07T11:49:46.473Z,13.10
2023-01-07T11:52:20.779Z,13.80
2023-01-07T11:54:53.913Z,14.60
2023-01-07T11:57:25.387Z,14.80
2023-01-07T12:00:11.230Z,15.20
2023-01-07T12:02:38.257Z,16.50
2023-01-07T12:05:19.616Z,16.00
2023-01-07T12:07:48.790Z,14.50
2023-01-07T12:10:24.769Z,14.00
2023-01-07T12:12:52.574Z,14.20
2023-01-07T12:15:24.599Z,14.00
2023-01-07T12:18:06.935Z,14.60
2023-01-07T12:20:45.884Z,14.90
2023-01-07T12:23:37.779Z,15.10
2023-01-07T12:26:10.391Z,14.50
2023-01-07T12:28:52.375Z,14.20
2023-01-07T12:31:19.441Z,14.10
2023-01-07T12:33:57.176Z,13.90
2023-01-07T12:36:46.266Z,14.20
2023-01-07T12:39:31.159Z,13.90
2023-01-07T12:42:14.346Z,13.40
2023-01-07T12:44:48.951Z,13.20
2023-01-07T12:47:30.988Z,14.00
2023-01-07T12:50:24.276Z,13.80
2023-01-07T12:52:57.748Z,13.20
2023-01-07T12:55:39.640Z,13.10
2023-01-07T12:58:18.810Z,13.00
2023-01-07T13:00:55.098Z,12.90
2023-01-07T13:03:44.539Z,12.80
2023-01-07T13:06:37.339Z,12.90
2023-01-07T13:09:28.227Z,13.10
2023-01-07T13:12:41.612Z,13.40
2023-01-07T13:15:28.642Z,13.70
2023-01-07T13:17:57.988Z,13.40
2023-01-07T13:21:01.546Z,13.30
2023-01-07T13:23:44.746Z,13.20
2023-01-07T13:26:24.063Z,13.20
2023-01-07T13:29:14.528Z,13.30
2023-01-07T13:31:49.576Z,13.00
2023-01-07T13:34:16.479Z,12.80
2023-01-07T13:37:20.601Z,12.70
2023-01-07T13:40:11.997Z,12.70
2023-01-07T13:42:49.186Z,12.70
2023-01-07T13:45:22.212Z,12.40
2023-01-07T13:47:53.622Z,12.30
2023-01-07T13:50:37.140Z,12.40
2023-01-07T13:53:07.745Z,12.30
2023-01-07T13:55:36.411Z,12.40
2023-01-07T13:58:24.451Z,12.30
2023-01-07T14:01:02.484Z,12.20
2023-01-07T14:03:47.211Z,12.10
2023-01-07T14:06:20.132Z,12.10
2023-01-07T14:08:59.864Z,12.10
2023-01-07T14:11:29.761Z,12.00
2023-01-07T14:14:30.850Z,11.90
2023-01-07T14:17:16.323Z,11.80
2023-01-07T14:20:01.169Z,11.80
2023-01-07T14:22:53.959Z,11.60
2023-01-07T14:25:42.335Z,11.50
2023-01-07T14:28:22.634Z,11.40
2023-01-07T14:30:51.474Z,11.40
2023-01-07T14:33:46.681Z,11.40
2023-01-07T14:36:13.672Z,11.30
2023-01-07T14:38:43.630Z,11.20
2023-01-07T14:41:13.414Z,11.20
2023-01-07T14:43:43.478Z,11.10
2023-01-07T14:46:33.050Z,11.00
2023-01-07T14:49:02.967Z,11.00
2023-01-07T14:51:45.310Z,11.00
2023-01-07T14:54:17.977Z,11.00
2023-01-07T14:56:57.322Z,10.90
2023-01-07T15:00:01.249Z,10.90
2023-01-07T15:02:31.565Z,10.90
2023-01-07T15:05:04.299Z,10.80
2023-01-07T15:07:36.056Z,10.80
2023-01-07T15:10:37.060Z,10.70
2023-01-07T15:13:25.058Z,10.70
2023-01-07T15:16:04.265Z,10.60
2023-01-07T15:18:34.662Z,10.60
2023-01-07T15:21:19.409Z,10.50
2023-01-07T15:24:05.472Z,10.40
2023-01-07T15:27:00.206Z,10.40
2023-01-07T15:29:42.336Z,10.40
2023-01-07T15:32:24.574Z,10.40
2023-01-07T15:34:51.826Z,10.40
2023-01-07T15:37:19.513Z,10.30
2023-01-07T15:39:52.142Z,10.30
2023-01-07T15:42:22.334Z,10.30
2023-01-07T15:44:54.831Z,10.30
2023-01-07T15:47:41.542Z,10.30
2023-01-07T15:50:33.797Z,10.20
2023-01-07T15:53:12.742Z,10.10
2023-01-07T15:55:39.748Z,10.00
2023-01-07T15:58:12.672Z,10.00
2023-01-07T16:00:40.265Z,9.90
2023-01-07T16:03:07.927Z,9.90
2023-01-07T16:05:38.301Z,9.90
2023-01-07T16:08:05.671Z,9.90
2023-01-07T16:10:35.070Z,9.90
2023-01-07T16:13:05.155Z,9.80
2023-01-07T16:15:37.863Z,9.80
2023-01-07T16:18:18.773Z,9.70
2023-01-07T16:21:00.114Z,9.60
2023-01-07T16:23:30.584Z,9.60
2023-01-07T16:26:28.269Z,9.60
2023-01-07T16:29:02.216Z,9.60
2023-01-07T16:31:30.574Z,9.50
2023-01-07T16:33:59.687Z,9.60
2023-01-07T16:36:32.948Z,9.60
2023-01-07T16:39:06.650Z,9.50
2023-01-07T16:41:34.762Z,9.50
2023-01-07T16:44:02.037Z,9.60
2023-01-07T16:46:36.170Z,9.70
2023-01-07T16:49:30.187Z,9.70
2023-01-07T16:52:03.210Z,9.60
2023-01-07T16:54:39.962Z,9.60
2023-01-07T16:57:09.977Z,9.60
2023-01-07T16:59:38.614Z,9.60
2023-01-07T17:02:29.458Z,9.60
2023-01-07T17:05:19.225Z,9.60
2023-01-07T17:07:58.078Z,9.60
2023-01-07T17:10:34.065Z,9.60
2023-01-07T17:13:04.980Z,9.60
2023-01-07T17:15:31.791Z,9.60
2023-01-07T17:18:11.170Z,9.50
2023-01-07T17:20:47.523Z,9.40
2023-01-07T17:23:27.212Z,9.40
2023-01-07T17:26:10.875Z,9.40
2023-01-07T17:28:52.696Z,9.40
2023-01-07T17:31:20.909Z,9.40
2023-01-07T17:33:48.173Z,9.40
2023-01-07T17:36:35.498Z,9.50
2023-01-07T17:39:02.637Z,9.50
2023-01-07T17:41:50.620Z,9.50
2023-01-07T17:44:17.511Z,9.50
2023-01-07T17:46:44.471Z,9.60
2023-01-07T17:49:11.849Z,9.50
2023-01-07T17:51:41.604Z,9.40
2023-01-07T17:54:24.157Z,9.50
2023-01-07T17:56:52.391Z,9.50
2023-01-07T17:59:22.951Z,9.50
2023-01-07T18:01:52.785Z,9.50
2023-01-07T18:04:21.515Z,9.50
2023-01-07T18:06:48.410Z,9.50
2023-01-07T18:09:15.342Z,9.60
2023-01-07T18:12:04.541Z,9.50
2023-01-07T18:14:32.844Z,9.50
2023-01-07T18:17:00.035Z,9.40
2023-01-07T18:19:26.963Z,9.40
2023-01-07T18:21:54.158Z,9.40
2023-01-07T18:24:22.048Z,9.40
2023-01-07T18:26:49.370Z,9.50
2023-01-07T18:29:16.408Z,9.50
2023-01-07T18:31:44.554Z,9.50
2023-01-07T18:34:13.805Z,9.50
2023-01-07T18:36:42.135Z,9.50
2023-01-07T18:39:19.386Z,9.40
2023-01-07T18:41:49.489Z,9.40
2023-01-07T18:44:21.767Z,9.40
2023-01-07T18:46:49.837Z,9.50
2023-01-07T18:49:19.491Z,9.50
2023-01-07T18:51:47.685Z,9.50
2023-01-07T18:54:15.642Z,9.40
2023-01-07T18:56:45.741Z,9.50
2023-01-07T18:59:13.529Z,9.50
2023-01-07T19:01:40.668Z,9.50
2023-01-07T19:04:07.945Z,9.40
2023-01-07T19:06:35.061Z,9.50
2023-01-07T19:09:02.018Z,9.60
2023-01-07T19:11:28.994Z,9.70
2023-01-07T19:13:55.923Z,9.70
2023-01-07T19:16:22.939Z,9.70
2023-01-07T19:18:49.904Z,9.60
2023-01-07T19:21:16.941Z,9.60
2023-01-07T19:23:43.961Z,9.70
2023-01-07T19:26:11.986Z,9.60
2023-01-07T19:28:38.907Z,9.60
2023-01-07T19:31:08.083Z,9.80
2023-01-07T19:33:35.619Z,9.70
2023-01-07T19:36:05.039Z,9.70
2023-01-07T19:38:32.449Z,9.80
2023-01-07T19:40:59.465Z,9.80
2023-01-07T19:43:26.455Z,9.90
2023-01-07T19:45:55.533Z,10.00
2023-01-07T19:48:23.438Z,10.00
2023-01-07T19:50:59.168Z,10.10
2023-01-07T19:53:27.064Z,10.20
2023-01-07T19:55:56.743Z,10.30
2023-01-07T19:58:23.865Z,10.40
2023-01-07T20:00:50.937Z,10.40
2023-01-07T20:03:17.892Z,10.40
2023-01-07T20:05:45.020Z,10.50
2023-01-07T20:08:12.060Z,10.40
2023-01-07T20:10:38.938Z,10.40
2023-01-07T20:13:06.493Z,10.40
2023-01-07T20:15:33.430Z,10.30
2023-01-07T20:18:00.332Z,10.30
2023-01-07T20:20:27.376Z,10.30
2023-01-07T20:22:54.783Z,10.30
2023-01-07T20:25:21.876Z,10.30
2023-01-07T20:27:48.911Z,10.40
2023-01-07T20:30:15.882Z,10.30
2023-01-07T20:32:42.904Z,10.40
2023-01-07T20:35:10.047Z,10.50
2023-01-07T20:37:37.132Z,10.40
2023-01-07T20:40:04.578Z,10.40
2023-01-07T20:42:32.084Z,10.50
2023-01-07T20:45:04.714Z,10.50
2023-01-07T20:47:31.720Z,10.60
2023-01-07T20:49:58.837Z,10.60
2023-01-07T20:52:30.506Z,10.60
2023-01-07T20:54:58.387Z,10.60
2023-01-07T20:57:25.318Z,10.80
2023-01-07T20:59:52.258Z,10.80
2023-01-07T21:02:21.081Z,10.80
2023-01-07T21:04:48.127Z,10.90
2023-01-07T21:07:15.166Z,11.00
2023-01-07T21:09:44.449Z,11.00
2023-01-07T21:12:11.574Z,11.10
2023-01-07T21:14:38.522Z,11.10
2023-01-07T21:17:05.659Z,11.10
2023-01-07T21:19:32.758Z,11.10
2023-01-07T21:22:00.472Z,11.10
2023-01-07T21:24:27.380Z,11.10
2023-01-07T21:26:54.443Z,11.10
2023-01-07T21:29:21.636Z,11.20
2023-01-07T21:31:48.574Z,11.20
2023-01-07T21:34:15.657Z,11.10
2023-01-07T21:36:44.169Z,11.10
2023-01-07T21:39:12.833Z,11.20
2023-01-07T21:41:41.846Z,11.10
2023-01-07T21:44:11.890Z,11.10
2023-01-07T21:46:38.926Z,11.10
2023-01-07T21:49:08.175Z,11.10
2023-01-07T21:51:35.332Z,11.00
2023-01-07T21:54:02.414Z,11.00
2023-01-07T21:56:32.822Z,10.90
2023-01-07T21:59:00.345Z,10.80
2023-01-07T22:01:30.840Z,10.70
2023-01-07T22:03:59.318Z,10.70
2023-01-07T22:06:31.901Z,10.70
2023-01-07T22:09:05.034Z,10.70
2023-01-07T22:11:32.825Z,10.70
2023-01-07T22:14:01.535Z,10.70
2023-01-07T22:16:30.974Z,10.70
2023-01-07T22:18:58.348Z,10.70
2023-01-07T22:21:25.634Z,10.70
2023-01-07T22:23:52.611Z,10.70
2023-01-07T22:26:20.759Z,10.70
2023-01-07T22:29:01.827Z,10.70
2023-01-07T22:31:32.386Z,10.80
2023-01-07T22:33:59.526Z,10.70
2023-01-07T22:36:51.819Z,10.70
2023-01-07T22:39:31.918Z,10.80
2023-01-07T22:42:04.467Z,10.80
2023-01-07T22:44:40.414Z,10.70
2023-01-07T22:47:11.044Z,10.80
2023-01-07T22:49:40.490Z,10.80
2023-01-07T22:52:07.833Z,10.70
2023-01-07T22:54:39.783Z,10.80
2023-01-07T22:57:09.496Z,10.80
2023-01-07T22:59:36.661Z,10.80
2023-01-07T23:02:04.040Z,10.80
2023-01-07T23:04:31.074Z,10.80
2023-01-07T23:06:58.132Z,10.80
2023-01-07T23:09:25.067Z,10.80
2023-01-07T23:11:52.245Z,10.80
2023-01-07T23:14:21.654Z,10.80
2023-01-07T23:16:49.935Z,10.80
2023-01-07T23:19:20.645Z,10.80
2023-01-07T23:21:51.195Z,10.80
2023-01-07T23:24:18.418Z,10.80
2023-01-07T23:26:47.258Z,10.80
2023-01-07T23:29:14.251Z,10.90
2023-01-07T23:31:41.245Z,10.90
2023-01-07T23:34:08.375Z,10.90
2023-01-07T23:36:39.006Z,10.90
2023-01-07T23:39:06.486Z,10.90
2023-01-07T23:41:33.973Z,10.90
2023-01-07T23:44:01.250Z,10.90
2023-01-07T23:46:28.373Z,10.90
2023-01-07T23:48:55.311Z,10.90
2023-01-07T23:51:22.454Z,10.90
2023-01-07T23:53:49.907Z,10.90
2023-01-07T23:56:21.588Z,10.80
2023-01-07T23:58:49.614Z,10.80
